createdAt,value
2023-10-21T00:02:09.469Z,13.96
2023-10-21T00:04:54.764Z,13.97
2023-10-21T00:07:40.144Z,14.06
2023-10-21T00:10:25.323Z,14.02
2023-10-21T00:13:10.785Z,13.86
2023-10-21T00:15:55.970Z,13.95
2023-10-21T00:18:41.407Z,14.12
2023-10-21T00:21:26.473Z,14.02
2023-10-21T00:24:11.993Z,14.07
2023-10-21T00:26:56.885Z,14.17
2023-10-21T00:29:41.905Z,14.14
2023-10-21T00:32:27.518Z,14.23
2023-10-21T00:35:12.596Z,14.29
2023-10-21T00:37:57.451Z,14.23
2023-10-21T00:40:50.386Z,14.20
2023-10-21T00:43:37.474Z,14.20
2023-10-21T00:46:23.169Z,14.14
2023-10-21T00:49:08.111Z,14.16
2023-10-21T00:51:53.441Z,14.07
2023-10-21T00:54:38.448Z,13.75
2023-10-21T00:57:24.409Z,13.97
2023-10-21T01:00:11.379Z,13.97
2023-10-21T01:02:57.525Z,14.00
2023-10-21T01:05:42.712Z,13.82
2023-10-21T01:08:28.017Z,13.89
2023-10-21T01:11:13.413Z,13.96
2023-10-21T01:13:59.830Z,14.06
2023-10-21T01:16:45.182Z,13.80
2023-10-21T01:19:31.528Z,13.79
2023-10-21T01:22:16.382Z,13.82
2023-10-21T01:25:01.863Z,13.90
2023-10-21T01:27:46.752Z,13.89
2023-10-21T01:30:31.487Z,13.96
2023-10-21T01:33:16.336Z,14.06
2023-10-21T01:36:01.739Z,14.12
2023-10-21T01:38:46.859Z,14.10
2023-10-21T01:41:32.862Z,14.12
2023-10-21T01:44:18.113Z,14.14
2023-10-21T01:47:03.029Z,14.07
2023-10-21T01:49:47.996Z,13.99
2023-10-21T01:52:33.000Z,13.91
2023-10-21T01:55:17.818Z,13.99
2023-10-21T01:58:03.733Z,14.03
2023-10-21T02:00:48.834Z,14.19
2023-10-21T02:03:34.018Z,14.31
2023-10-21T02:06:19.376Z,14.26
2023-10-21T02:09:04.768Z,14.20
2023-10-21T02:11:50.034Z,14.21
2023-10-21T02:14:36.118Z,14.27
2023-10-21T02:17:21.229Z,14.33
2023-10-21T02:20:08.122Z,14.27
2023-10-21T02:22:52.862Z,14.27
2023-10-21T02:25:37.638Z,14.36
2023-10-21T02:28:23.212Z,14.29
2023-10-21T02:31:08.505Z,14.26
2023-10-21T02:33:53.743Z,14.16
2023-10-21T02:36:38.433Z,14.26
2023-10-21T02:39:23.964Z,14.31
2023-10-21T02:42:09.347Z,14.41
2023-10-21T02:44:54.844Z,14.34
2023-10-21T02:47:40.763Z,14.37
2023-10-21T02:50:25.855Z,14.48
2023-10-21T02:53:10.639Z,14.60
2023-10-21T02:55:55.368Z,14.63
2023-10-21T02:58:40.772Z,14.63
2023-10-21T03:01:25.691Z,14.65
2023-10-21T03:04:11.407Z,14.67
2023-10-21T03:06:56.420Z,14.60
2023-10-21T03:09:41.335Z,14.68
2023-10-21T03:12:27.292Z,14.54
2023-10-21T03:15:12.499Z,14.51
2023-10-21T03:17:57.244Z,14.34
2023-10-21T03:20:42.798Z,14.40
2023-10-21T03:23:28.265Z,14.41
2023-10-21T03:26:14.064Z,14.41
2023-10-21T03:28:59.487Z,14.37
2023-10-21T03:31:44.174Z,14.38
2023-10-21T03:34:29.324Z,14.44
2023-10-21T03:37:15.180Z,14.52
2023-10-21T03:40:00.342Z,14.44
2023-10-21T03:42:45.359Z,14.58
2023-10-21T03:45:30.153Z,14.37
2023-10-21T03:48:15.490Z,14.50
2023-10-21T03:51:05.366Z,14.48
2023-10-21T03:53:50.978Z,14.56
2023-10-21T03:56:35.635Z,14.60
2023-10-21T03:59:21.090Z,14.68
2023-10-21T04:02:05.974Z,14.63
2023-10-21T04:04:51.332Z,14.67
2023-10-21T04:07:36.026Z,14.71
2023-10-21T04:10:22.088Z,14.81
2023-10-21T04:13:07.435Z,14.88
2023-10-21T04:15:52.264Z,14.88
2023-10-21T04:18:37.329Z,14.96
2023-10-21T04:21:22.731Z,14.91
2023-10-21T04:24:08.809Z,14.79
2023-10-21T04:26:54.746Z,14.85
2023-10-21T04:29:39.446Z,14.88
2023-10-21T04:32:26.026Z,14.89
2023-10-21T04:35:13.285Z,14.84
2023-10-21T04:37:58.408Z,14.78
2023-10-21T04:40:43.163Z,14.67
2023-10-21T04:43:29.211Z,14.67
2023-10-21T04:46:14.693Z,14.61
2023-10-21T04:48:59.488Z,14.67
2023-10-21T04:51:44.164Z,14.79
2023-10-21T04:54:28.899Z,14.77
2023-10-21T04:57:15.374Z,14.78
2023-10-21T05:00:01.465Z,14.81
2023-10-21T05:02:46.574Z,14.91
2023-10-21T05:05:31.714Z,14.85
2023-10-21T05:08:16.800Z,14.93
2023-10-21T05:11:01.601Z,14.92
2023-10-21T05:13:46.758Z,15.05
2023-10-21T05:16:32.815Z,15.05
2023-10-21T05:19:20.321Z,14.95
2023-10-21T05:22:06.870Z,15.06
2023-10-21T05:24:51.488Z,15.02
2023-10-21T05:27:36.195Z,14.98
2023-10-21T05:30:21.321Z,14.99
2023-10-21T05:33:09.399Z,15.13
2023-10-21T05:35:58.106Z,15.19
2023-10-21T05:38:43.160Z,15.22
2023-10-21T05:41:28.931Z,15.13
2023-10-21T05:44:14.818Z,15.01
2023-10-21T05:46:59.505Z,15.16
2023-10-21T05:49:45.002Z,15.02
2023-10-21T05:52:29.931Z,14.96
2023-10-21T05:55:15.370Z,15.02
2023-10-21T05:58:00.518Z,14.98
2023-10-21T06:00:45.289Z,14.96
2023-10-21T06:03:30.407Z,14.91
2023-10-21T06:06:17.478Z,15.05
2023-10-21T06:09:03.150Z,15.08
2023-10-21T06:11:48.397Z,15.12
2023-10-21T06:14:33.697Z,14.95
2023-10-21T06:17:19.100Z,15.09
2023-10-21T06:20:04.831Z,15.15
2023-10-21T06:22:50.431Z,15.26
2023-10-21T06:25:35.068Z,15.30
2023-10-21T06:28:19.827Z,15.39
2023-10-21T06:31:04.808Z,15.43
2023-10-21T06:33:49.661Z,15.44
2023-10-21T06:36:34.877Z,15.57
2023-10-21T06:39:21.868Z,15.67
2023-10-21T06:42:07.191Z,15.57
2023-10-21T06:44:52.322Z,15.71
2023-10-21T06:47:37.316Z,15.83
2023-10-21T06:50:22.252Z,15.84
2023-10-21T06:53:07.466Z,15.71
2023-10-21T06:55:53.611Z,15.66
2023-10-21T06:58:39.065Z,15.70
2023-10-21T07:01:24.450Z,15.79
2023-10-21T07:04:09.192Z,15.73
2023-10-21T07:06:53.976Z,15.81
2023-10-21T07:09:39.155Z,15.84
2023-10-21T07:12:24.882Z,15.97
2023-10-21T07:15:12.642Z,16.08
2023-10-21T07:17:58.031Z,16.25
2023-10-21T07:20:42.738Z,16.24
2023-10-21T07:23:27.518Z,16.17
2023-10-21T07:26:12.312Z,16.11
2023-10-21T07:28:57.781Z,16.07
2023-10-21T07:31:42.541Z,16.08
2023-10-21T07:34:27.370Z,16.18
2023-10-21T07:37:12.334Z,16.15
2023-10-21T07:39:57.639Z,16.18
2023-10-21T07:42:42.926Z,16.24
2023-10-21T07:45:28.868Z,16.32
2023-10-21T07:48:14.281Z,16.44
2023-10-21T07:50:59.345Z,16.48
2023-10-21T07:53:44.671Z,16.45
2023-10-21T07:56:29.830Z,16.45
2023-10-21T07:59:14.594Z,16.44
2023-10-21T08:02:02.330Z,16.47
2023-10-21T08:04:47.746Z,16.48
2023-10-21T08:07:33.086Z,16.41
2023-10-21T08:10:18.232Z,16.34
2023-10-21T08:13:03.959Z,16.44
2023-10-21T08:15:49.198Z,16.47
2023-10-21T08:18:34.531Z,16.49
2023-10-21T08:21:19.408Z,16.51
2023-10-21T08:24:06.093Z,16.65
2023-10-21T08:26:51.431Z,16.75
2023-10-21T08:29:36.700Z,16.58
2023-10-21T08:32:21.537Z,16.66
2023-10-21T08:35:07.828Z,16.62
2023-10-21T08:37:52.942Z,16.76
2023-10-21T08:40:38.773Z,16.85
2023-10-21T08:43:24.012Z,16.97
2023-10-21T08:46:09.817Z,17.06
2023-10-21T08:48:55.799Z,17.14
2023-10-21T08:51:43.009Z,17.19
2023-10-21T08:54:31.466Z,17.24
2023-10-21T08:57:17.229Z,17.33
2023-10-21T09:00:02.179Z,17.48
2023-10-21T09:02:47.513Z,17.45
2023-10-21T09:05:32.982Z,17.61
2023-10-21T09:08:30.898Z,17.50
2023-10-21T09:11:18.454Z,17.48
2023-10-21T09:17:13.134Z,17.58
2023-10-21T09:19:58.363Z,17.63
2023-10-21T09:22:46.207Z,17.64
2023-10-21T09:25:32.194Z,17.64
2023-10-21T09:28:21.749Z,17.73
2023-10-21T09:31:06.916Z,17.81
2023-10-21T09:33:55.056Z,17.78
2023-10-21T09:36:40.265Z,17.68
2023-10-21T09:39:26.862Z,17.77
2023-10-21T09:42:14.140Z,17.68
2023-10-21T09:44:59.152Z,17.70
2023-10-21T09:47:46.050Z,17.73
2023-10-21T09:50:36.312Z,17.79
2023-10-21T09:53:29.280Z,17.86
2023-10-21T09:56:16.647Z,17.86
2023-10-21T09:59:03.245Z,17.84
2023-10-21T10:01:50.757Z,17.81
2023-10-21T10:04:36.098Z,17.78
2023-10-21T10:07:37.795Z,17.78
2023-10-21T10:10:27.351Z,17.73
2023-10-21T10:13:15.137Z,17.77
2023-10-21T10:16:19.628Z,17.85
2023-10-21T10:19:04.856Z,17.81
2023-10-21T10:21:50.088Z,17.91
2023-10-21T10:24:35.944Z,18.05
2023-10-21T10:27:24.943Z,18.22
2023-10-21T10:30:19.275Z,18.29
2023-10-21T10:33:07.772Z,18.32
2023-10-21T10:35:55.796Z,18.45
2023-10-21T10:38:44.650Z,18.49
2023-10-21T10:41:29.611Z,18.53
2023-10-21T10:44:15.282Z,18.66
2023-10-21T10:47:01.656Z,18.57
2023-10-21T10:49:57.756Z,18.59
2023-10-21T10:52:42.769Z,18.55
2023-10-21T10:55:28.042Z,18.46
2023-10-21T10:58:13.118Z,18.29
2023-10-21T11:00:58.473Z,18.36
2023-10-21T11:03:43.417Z,18.18
2023-10-21T11:06:34.399Z,18.16
2023-10-21T11:09:25.680Z,18.26
2023-10-21T11:12:11.414Z,18.30
2023-10-21T11:14:56.768Z,18.49
2023-10-21T11:17:44.027Z,18.52
2023-10-21T11:20:28.763Z,18.55
2023-10-21T11:23:15.828Z,18.59
2023-10-21T11:26:02.159Z,18.66
2023-10-21T11:28:47.554Z,18.73
2023-10-21T11:31:34.302Z,18.77
2023-10-21T11:34:20.469Z,18.73
2023-10-21T11:37:05.799Z,18.74
2023-10-21T11:39:52.107Z,18.81
2023-10-21T11:42:37.816Z,18.86
2023-10-21T11:45:22.873Z,18.91
2023-10-21T11:48:08.557Z,18.88
2023-10-21T11:50:53.528Z,18.86
2023-10-21T11:53:38.821Z,18.90
2023-10-21T11:56:24.348Z,18.94
2023-10-21T11:59:14.601Z,18.97
2023-10-21T12:01:59.818Z,18.97
2023-10-21T12:04:44.685Z,18.93
2023-10-21T12:07:30.933Z,18.83
2023-10-21T12:10:16.304Z,18.90
2023-10-21T12:13:01.879Z,18.97
2023-10-21T12:15:46.899Z,19.04
2023-10-21T12:18:32.326Z,19.11
2023-10-21T12:21:17.633Z,19.06
2023-10-21T12:24:02.952Z,19.04
2023-10-21T12:26:47.572Z,19.06
2023-10-21T12:29:33.561Z,19.07
2023-10-21T12:32:18.277Z,19.11
2023-10-21T12:35:04.530Z,19.17
2023-10-21T12:37:49.565Z,19.18
2023-10-21T12:40:36.275Z,19.29
2023-10-21T12:43:21.022Z,19.35
2023-10-21T12:46:06.744Z,19.32
2023-10-21T12:48:51.910Z,19.38
2023-10-21T12:51:37.086Z,19.35
2023-10-21T12:54:22.558Z,19.42
2023-10-21T12:57:08.188Z,19.61
2023-10-21T12:59:53.118Z,19.79
2023-10-21T13:02:38.782Z,19.92
2023-10-21T13:05:25.439Z,20.08
2023-10-21T13:08:11.791Z,20.23
2023-10-21T13:10:57.402Z,20.36
2023-10-21T13:13:42.802Z,20.40
2023-10-21T13:16:28.164Z,20.37
2023-10-21T13:19:14.089Z,20.39
2023-10-21T13:21:59.026Z,20.31
2023-10-21T13:24:45.595Z,20.20
2023-10-21T13:27:31.074Z,20.16
2023-10-21T13:30:15.902Z,20.06
2023-10-21T13:33:01.124Z,19.96
2023-10-21T13:35:46.593Z,19.94
2023-10-21T13:38:31.341Z,19.94
2023-10-21T13:41:19.213Z,20.05
2023-10-21T13:44:05.376Z,20.08
2023-10-21T13:46:50.525Z,20.10
2023-10-21T13:49:40.719Z,20.27
2023-10-21T13:52:27.131Z,20.41
2023-10-21T13:55:13.372Z,20.39
2023-10-21T13:57:58.680Z,20.41
2023-10-21T14:00:44.127Z,20.30
2023-10-21T14:03:29.916Z,20.19
2023-10-21T14:06:15.131Z,20.12
2023-10-21T14:09:05.203Z,20.08
2023-10-21T14:11:51.569Z,20.06
2023-10-21T14:14:36.891Z,20.09
2023-10-21T14:17:22.111Z,20.10
2023-10-21T14:20:08.308Z,19.97
2023-10-21T14:22:55.539Z,20.01
2023-10-21T14:25:45.645Z,20.09
2023-10-21T14:28:32.801Z,20.05
2023-10-21T14:31:27.916Z,20.21
2023-10-21T14:34:18.096Z,20.30
2023-10-21T14:37:03.295Z,20.33
2023-10-21T14:39:48.402Z,20.44
2023-10-21T14:42:35.583Z,20.50
2023-10-21T14:45:20.848Z,20.51
2023-10-21T14:48:07.806Z,20.54
2023-10-21T14:50:52.695Z,20.51
2023-10-21T14:53:37.965Z,20.50
2023-10-21T14:56:23.462Z,20.50
2023-10-21T14:59:09.395Z,20.52
2023-10-21T15:01:54.997Z,20.47
2023-10-21T15:04:40.826Z,20.37
2023-10-21T15:07:25.959Z,20.36
2023-10-21T15:10:11.536Z,20.29
2023-10-21T15:12:57.399Z,20.31
2023-10-21T15:15:43.333Z,20.33
2023-10-21T15:18:29.263Z,20.36
2023-10-21T15:21:14.194Z,20.39
2023-10-21T15:23:58.938Z,20.45
2023-10-21T15:26:43.930Z,20.45
2023-10-21T15:29:29.125Z,20.48
2023-10-21T15:32:15.313Z,20.48
2023-10-21T15:35:01.170Z,20.48
2023-10-21T15:37:46.703Z,20.57
2023-10-21T15:40:32.409Z,20.52
2023-10-21T15:43:17.390Z,20.50
2023-10-21T15:46:02.116Z,20.48
2023-10-21T15:48:47.896Z,20.50
2023-10-21T15:51:33.010Z,20.39
2023-10-21T15:54:18.422Z,20.41
2023-10-21T15:57:04.129Z,20.40
2023-10-21T15:59:49.717Z,20.41
2023-10-21T16:02:35.207Z,20.40
2023-10-21T16:05:20.775Z,20.34
2023-10-21T16:08:06.041Z,20.27
2023-10-21T16:10:59.839Z,20.27
2023-10-21T16:13:45.452Z,20.19
2023-10-21T16:16:30.741Z,20.17
2023-10-21T16:19:16.724Z,20.13
2023-10-21T16:22:02.898Z,20.12
2023-10-21T16:24:48.021Z,20.08
2023-10-21T16:27:33.364Z,20.05
2023-10-21T16:30:18.435Z,20.03
2023-10-21T16:33:03.271Z,20.03
2023-10-21T16:35:48.054Z,20.03
2023-10-21T16:38:34.051Z,19.96
2023-10-21T16:41:19.345Z,19.87
2023-10-21T16:44:04.840Z,19.75
2023-10-21T16:46:51.274Z,19.65
2023-10-21T16:49:36.612Z,19.58
2023-10-21T16:52:22.227Z,19.52
2023-10-21T16:55:09.446Z,19.51
2023-10-21T16:57:54.663Z,19.49
2023-10-21T17:00:39.563Z,19.47
2023-10-21T17:03:24.544Z,19.48
2023-10-21T17:06:09.674Z,19.44
2023-10-21T17:08:54.599Z,19.39
2023-10-21T17:11:40.655Z,19.32
2023-10-21T17:14:28.906Z,19.25
2023-10-21T17:17:13.843Z,19.14
2023-10-21T17:19:58.648Z,19.11
2023-10-21T17:22:44.855Z,19.10
2023-10-21T17:25:30.240Z,19.11
2023-10-21T17:28:16.007Z,19.15
2023-10-21T17:31:01.034Z,19.19
2023-10-21T17:33:50.586Z,19.22
2023-10-21T17:36:36.404Z,19.25
2023-10-21T17:39:22.048Z,19.29
2023-10-21T17:42:07.609Z,19.31
2023-10-21T17:44:53.181Z,19.36
2023-10-21T17:47:38.146Z,19.36
2023-10-21T17:50:23.112Z,19.39
2023-10-21T17:53:08.279Z,19.39
2023-10-21T17:55:54.042Z,19.39
2023-10-21T17:58:38.754Z,19.38
2023-10-21T18:01:24.294Z,19.39
2023-10-21T18:04:11.155Z,19.45
2023-10-21T18:06:56.314Z,19.49
2023-10-21T18:09:41.622Z,19.55
2023-10-21T18:12:26.794Z,19.55
2023-10-21T18:15:12.118Z,19.59
2023-10-21T18:17:58.223Z,19.62
2023-10-21T18:20:43.210Z,19.62
2023-10-21T18:23:29.737Z,19.59
2023-10-21T18:26:14.693Z,19.55
2023-10-21T18:29:00.373Z,19.52
2023-10-21T18:31:45.396Z,19.49
2023-10-21T18:34:30.706Z,19.48
2023-10-21T18:37:15.968Z,19.44
2023-10-21T18:40:01.072Z,19.44
2023-10-21T18:42:45.997Z,19.41
2023-10-21T18:45:31.543Z,19.45
2023-10-21T18:48:16.208Z,19.44
2023-10-21T18:51:02.403Z,19.44
2023-10-21T18:53:48.406Z,19.39
2023-10-21T18:56:33.887Z,19.32
2023-10-21T18:59:18.745Z,19.27
2023-10-21T19:02:04.070Z,19.22
2023-10-21T19:04:49.249Z,19.19
2023-10-21T19:07:35.155Z,19.12
2023-10-21T19:10:20.147Z,19.00
2023-10-21T19:13:05.335Z,18.91
2023-10-21T19:15:50.219Z,18.86
2023-10-21T19:18:35.467Z,18.80
2023-10-21T19:21:20.669Z,18.77
2023-10-21T19:24:07.160Z,18.76
2023-10-21T19:26:52.324Z,18.73
2023-10-21T19:29:37.565Z,18.70
2023-10-21T19:32:22.703Z,18.64
2023-10-21T19:35:08.178Z,18.59
2023-10-21T19:37:52.912Z,18.61
2023-10-21T19:40:38.723Z,18.61
2023-10-21T19:43:23.727Z,18.63
2023-10-21T19:46:09.165Z,18.63
2023-10-21T19:48:53.924Z,18.70
2023-10-21T19:51:38.779Z,18.74
2023-10-21T19:54:24.021Z,18.77
2023-10-21T19:57:09.730Z,18.84
2023-10-21T19:59:54.562Z,18.91
2023-10-21T20:02:39.239Z,18.97
2023-10-21T20:05:24.191Z,18.96
2023-10-21T20:08:09.634Z,18.97
2023-10-21T20:11:05.869Z,19.01
2023-10-21T20:13:51.550Z,19.01
2023-10-21T20:16:36.856Z,19.06
2023-10-21T20:19:21.988Z,19.06
2023-10-21T20:22:07.360Z,19.08
2023-10-21T20:24:52.395Z,19.08
2023-10-21T20:27:37.528Z,19.10
2023-10-21T20:30:23.555Z,19.10
2023-10-21T20:33:08.661Z,19.14
2023-10-21T20:35:55.312Z,19.15
2023-10-21T20:38:40.286Z,19.14
2023-10-21T20:41:26.166Z,19.11
2023-10-21T20:44:11.551Z,19.06
2023-10-21T20:46:57.588Z,19.01
2023-10-21T20:49:42.998Z,18.94
2023-10-21T20:52:27.970Z,18.93
2023-10-21T20:55:13.253Z,18.78
2023-10-21T20:57:58.254Z,18.77
2023-10-21T21:00:44.015Z,18.78
2023-10-21T21:03:30.000Z,18.77
2023-10-21T21:06:15.087Z,18.68
2023-10-21T21:08:59.937Z,18.67
2023-10-21T21:11:45.256Z,18.52
2023-10-21T21:14:30.514Z,18.57
2023-10-21T21:17:15.818Z,18.42
2023-10-21T21:20:01.902Z,18.49
2023-10-21T21:22:47.656Z,18.53
2023-10-21T21:25:32.749Z,18.56
2023-10-21T21:28:17.988Z,18.64
2023-10-21T21:31:02.789Z,18.71
2023-10-21T21:33:48.004Z,18.77
2023-10-21T21:36:33.765Z,18.77
2023-10-21T21:39:18.935Z,18.73
2023-10-21T21:42:04.908Z,18.73
2023-10-21T21:44:50.007Z,18.70
2023-10-21T21:47:36.798Z,18.71
2023-10-21T21:50:23.100Z,18.70
2023-10-21T21:53:11.938Z,18.74
2023-10-21T21:55:57.464Z,18.78
2023-10-21T21:58:42.659Z,18.74
2023-10-21T22:01:27.944Z,18.71
2023-10-21T22:04:13.819Z,18.68
2023-10-21T22:06:58.494Z,18.70
2023-10-21T22:09:44.628Z,18.68
2023-10-21T22:12:29.494Z,18.63
2023-10-21T22:15:14.651Z,18.63
2023-10-21T22:17:59.935Z,18.56
2023-10-21T22:20:45.105Z,18.53
2023-10-21T22:23:30.041Z,18.53
2023-10-21T22:26:15.801Z,18.50
2023-10-21T22:29:00.673Z,18.49
2023-10-21T22:31:45.758Z,18.40
2023-10-21T22:34:30.664Z,18.36
2023-10-21T22:37:15.861Z,18.43
2023-10-21T22:40:00.989Z,18.43
2023-10-21T22:42:46.762Z,18.46
2023-10-21T22:45:32.029Z,18.47
2023-10-21T22:48:17.719Z,18.50
2023-10-21T22:51:03.079Z,18.50
2023-10-21T22:53:48.438Z,18.49
2023-10-21T22:56:33.913Z,18.49
2023-10-21T22:59:19.299Z,18.47
2023-10-21T23:02:04.328Z,18.47
2023-10-21T23:04:56.503Z,18.46
2023-10-21T23:07:42.898Z,18.40
2023-10-21T23:10:27.709Z,18.35
2023-10-21T23:13:12.729Z,18.32
2023-10-21T23:15:58.057Z,18.25
2023-10-21T23:18:43.206Z,18.18
2023-10-21T23:21:28.208Z,18.10
2023-10-21T23:24:13.022Z,18.02
2023-10-21T23:26:59.016Z,18.04
2023-10-21T23:29:43.766Z,18.08
2023-10-21T23:32:30.842Z,18.12
2023-10-21T23:35:15.548Z,18.06
2023-10-21T23:38:00.283Z,18.08
2023-10-21T23:40:45.222Z,18.08
2023-10-21T23:43:29.993Z,18.06
2023-10-21T23:46:15.544Z,18.10
2023-10-21T23:49:01.066Z,18.13
2023-10-21T23:51:46.487Z,18.10
2023-10-21T23:54:31.380Z,18.09
2023-10-21T23:57:17.294Z,18.06
